sensor_id;sensor_type;location;lat;lon;timestamp;pressure;altitude;pressure_sealevel;temperature;humidity
41230;BME280;26964;50.428;19.218;2022-12-18T00:01:15;1033.7;;;-4.6;81.1
41230;BME280;26964;50.428;19.218;2022-12-18T00:06:13;1033.7;;;-4.6;81.0
41230;BME280;26964;50.428;19.218;2022-12-18T00:11:14;1033.7;;;-4.5;81.2
41230;BME280;26964;50.428;19.218;2022-12-18T00:16:14;1033.8;;;-4.5;81.1
41230;BME280;26964;50.428;19.218;2022-12-18T00:21:13;1033.8;;;-4.6;80.8
41230;BME280;26964;50.428;19.218;2022-12-18T00:26:14;1034.0;;;-4.5;80.9
41230;BME280;26964;50.428;19.218;2022-12-18T00:31:14;1033.9;;;-4.6;80.8
41230;BME280;26964;50.428;19.218;2022-12-18T00:36:14;1034.0;;;-4.5;81.0
41230;BME280;26964;50.428;19.218;2022-12-18T00:41:15;1034.1;;;-4.4;81.2
41230;BME280;26964;50.428;19.218;2022-12-18T00:46:12;1034.1;;;-4.3;81.2
41230;BME280;26964;50.428;19.218;2022-12-18T00:51:13;1034.2;;;-4.3;81.1
41230;BME280;26964;50.428;19.218;2022-12-18T00:56:13;1034.2;;;-4.3;81.0
41230;BME280;26964;50.428;19.218;2022-12-18T01:01:13;1034.3;;;-4.3;81.0
41230;BME280;26964;50.428;19.218;2022-12-18T01:06:14;1034.4;;;-4.3;81.0
41230;BME280;26964;50.428;19.218;2022-12-18T01:11:16;1034.4;;;-4.4;80.9
41230;BME280;26964;50.428;19.218;2022-12-18T01:16:14;1034.4;;;-4.4;80.9
41230;BME280;26964;50.428;19.218;2022-12-18T01:21:14;1034.5;;;-4.4;81.0
41230;BME280;26964;50.428;19.218;2022-12-18T01:26:15;1034.6;;;-4.4;80.9
41230;BME280;26964;50.428;19.218;2022-12-18T01:31:15;1034.7;;;-4.4;81.0
41230;BME280;26964;50.428;19.218;2022-12-18T01:36:15;1034.7;;;-4.4;81.0
41230;BME280;26964;50.428;19.218;2022-12-18T01:41:14;1034.7;;;-4.4;80.9
41230;BME280;26964;50.428;19.218;2022-12-18T01:46:13;1034.7;;;-4.4;80.9
41230;BME280;26964;50.428;19.218;2022-12-18T01:51:13;1034.8;;;-4.5;80.9
41230;BME280;26964;50.428;19.218;2022-12-18T01:56:15;1034.8;;;-4.4;80.9
41230;BME280;26964;50.428;19.218;2022-12-18T02:01:13;1034.8;;;-4.4;81.0
41230;BME280;26964;50.428;19.218;2022-12-18T02:06:16;1035.0;;;-4.4;81.1
41230;BME280;26964;50.428;19.218;2022-12-18T02:11:17;1035.0;;;-4.3;81.5
41230;BME280;26964;50.428;19.218;2022-12-18T02:16:19;1035.1;;;-4.2;81.3
41230;BME280;26964;50.428;19.218;2022-12-18T02:21:19;1035.2;;;-4.3;80.9
41230;BME280;26964;50.428;19.218;2022-12-18T02:26:16;1035.2;;;-4.4;81.0
41230;BME280;26964;50.428;19.218;2022-12-18T02:31:17;1035.3;;;-4.4;81.0
41230;BME280;26964;50.428;19.218;2022-12-18T02:36:14;1035.3;;;-4.4;81.0
41230;BME280;26964;50.428;19.218;2022-12-18T02:41:14;1035.4;;;-4.4;81.0
41230;BME280;26964;50.428;19.218;2022-12-18T02:51:17;1035.5;;;-4.5;80.9
41230;BME280;26964;50.428;19.218;2022-12-18T02:56:17;1035.5;;;-4.5;80.9
41230;BME280;26964;50.428;19.218;2022-12-18T03:01:17;1035.6;;;-4.5;81.0
41230;BME280;26964;50.428;19.218;2022-12-18T03:06:20;1035.7;;;-4.5;81.1
41230;BME280;26964;50.428;19.218;2022-12-18T03:11:13;1035.8;;;-4.4;81.2
41230;BME280;26964;50.428;19.218;2022-12-18T03:16:17;1035.8;;;-4.4;81.0
41230;BME280;26964;50.428;19.218;2022-12-18T03:21:13;1035.7;;;-4.4;81.0
41230;BME280;26964;50.428;19.218;2022-12-18T03:26:17;1035.8;;;-4.5;81.0
41230;BME280;26964;50.428;19.218;2022-12-18T03:31:22;1035.9;;;-4.6;80.9
41230;BME280;26964;50.428;19.218;2022-12-18T03:36:12;1036.0;;;-4.6;81.0
41230;BME280;26964;50.428;19.218;2022-12-18T03:41:18;1036.0;;;-4.5;81.2
41230;BME280;26964;50.428;19.218;2022-12-18T03:46:17;1036.0;;;-4.5;81.0
41230;BME280;26964;50.428;19.218;2022-12-18T03:51:17;1036.1;;;-4.5;81.1
41230;BME280;26964;50.428;19.218;2022-12-18T03:56:13;1036.2;;;-4.6;80.9
41230;BME280;26964;50.428;19.218;2022-12-18T04:01:16;1036.3;;;-4.6;81.1
41230;BME280;26964;50.428;19.218;2022-12-18T04:06:13;1036.2;;;-4.5;81.3
41230;BME280;26964;50.428;19.218;2022-12-18T04:11:13;1036.3;;;-4.5;80.9
41230;BME280;26964;50.428;19.218;2022-12-18T04:16:12;1036.3;;;-4.6;80.8
41230;BME280;26964;50.428;19.218;2022-12-18T04:21:13;1036.3;;;-4.6;80.8
41230;BME280;26964;50.428;19.218;2022-12-18T04:26:13;1036.3;;;-4.7;80.7
41230;BME280;26964;50.428;19.218;2022-12-18T04:31:12;1036.5;;;-4.7;80.9
41230;BME280;26964;50.428;19.218;2022-12-18T04:36:13;1036.6;;;-4.7;80.7
41230;BME280;26964;50.428;19.218;2022-12-18T04:41:13;1036.7;;;-4.8;80.9
41230;BME280;26964;50.428;19.218;2022-12-18T04:46:12;1036.9;;;-4.7;81.0
41230;BME280;26964;50.428;19.218;2022-12-18T04:51:12;1036.8;;;-4.8;80.8
41230;BME280;26964;50.428;19.218;2022-12-18T04:56:14;1036.9;;;-4.7;80.9
41230;BME280;26964;50.428;19.218;2022-12-18T05:01:14;1037.0;;;-4.7;81.0
41230;BME280;26964;50.428;19.218;2022-12-18T05:06:13;1036.9;;;-4.7;80.9
41230;BME280;26964;50.428;19.218;2022-12-18T05:11:14;1036.9;;;-4.7;81.1
41230;BME280;26964;50.428;19.218;2022-12-18T05:16:13;1037.0;;;-4.6;81.1
41230;BME280;26964;50.428;19.218;2022-12-18T05:21:12;1037.0;;;-4.7;81.0
41230;BME280;26964;50.428;19.218;2022-12-18T05:26:15;1037.1;;;-4.6;81.0
41230;BME280;26964;50.428;19.218;2022-12-18T05:31:13;1037.1;;;-4.6;81.0
41230;BME280;26964;50.428;19.218;2022-12-18T05:36:17;1037.3;;;-4.5;81.1
41230;BME280;26964;50.428;19.218;2022-12-18T05:41:14;1037.3;;;-4.5;81.0
41230;BME280;26964;50.428;19.218;2022-12-18T05:46:14;1037.4;;;-4.5;81.0
41230;BME280;26964;50.428;19.218;2022-12-18T05:51:14;1037.3;;;-4.6;80.8
41230;BME280;26964;50.428;19.218;2022-12-18T05:56:15;1037.3;;;-4.6;80.9
41230;BME280;26964;50.428;19.218;2022-12-18T06:01:15;1037.4;;;-4.6;80.8
41230;BME280;26964;50.428;19.218;2022-12-18T06:06:14;1037.5;;;-4.7;80.8
41230;BME280;26964;50.428;19.218;2022-12-18T06:11:13;1037.5;;;-4.7;80.9
41230;BME280;26964;50.428;19.218;2022-12-18T06:16:13;1037.5;;;-4.7;80.9
41230;BME280;26964;50.428;19.218;2022-12-18T06:21:13;1037.7;;;-4.7;80.9
41230;BME280;26964;50.428;19.218;2022-12-18T06:26:13;1037.6;;;-4.7;80.9
41230;BME280;26964;50.428;19.218;2022-12-18T06:31:13;1037.8;;;-4.7;81.0
41230;BME280;26964;50.428;19.218;2022-12-18T06:36:13;1037.8;;;-4.7;80.9
41230;BME280;26964;50.428;19.218;2022-12-18T06:41:13;1037.9;;;-4.7;80.9
41230;BME280;26964;50.428;19.218;2022-12-18T06:46:12;1038.0;;;-4.6;81.2
41230;BME280;26964;50.428;19.218;2022-12-18T06:51:17;1038.1;;;-4.6;81.0
41230;BME280;26964;50.428;19.218;2022-12-18T06:56:12;1038.1;;;-4.5;81.2
41230;BME280;26964;50.428;19.218;2022-12-18T07:01:12;1038.1;;;-4.5;81.0
41230;BME280;26964;50.428;19.218;2022-12-18T07:06:14;1038.2;;;-4.5;80.7
41230;BME280;26964;50.428;19.218;2022-12-18T07:11:12;1038.3;;;-4.6;80.4
41230;BME280;26964;50.428;19.218;2022-12-18T07:16:13;1038.4;;;-4.7;80.6
41230;BME280;26964;50.428;19.218;2022-12-18T07:21:15;1038.5;;;-4.7;80.8
41230;BME280;26964;50.428;19.218;2022-12-18T07:26:13;1038.6;;;-4.7;80.8
41230;BME280;26964;50.428;19.218;2022-12-18T07:31:13;1038.7;;;-4.7;80.7
41230;BME280;26964;50.428;19.218;2022-12-18T07:36:13;1038.8;;;-4.6;80.9
41230;BME280;26964;50.428;19.218;2022-12-18T07:41:13;1038.8;;;-4.6;80.8
41230;BME280;26964;50.428;19.218;2022-12-18T07:46:13;1038.8;;;-4.6;80.5
41230;BME280;26964;50.428;19.218;2022-12-18T07:51:13;1038.9;;;-4.6;80.7
41230;BME280;26964;50.428;19.218;2022-12-18T07:56:12;1038.8;;;-4.7;80.3
41230;BME280;26964;50.428;19.218;2022-12-18T08:01:12;1038.8;;;-4.9;79.8
41230;BME280;26964;50.428;19.218;2022-12-18T08:06:13;1038.9;;;-4.8;80.5
41230;BME280;26964;50.428;19.218;2022-12-18T08:11:12;1038.9;;;-4.7;80.6
41230;BME280;26964;50.428;19.218;2022-12-18T08:16:12;1039.0;;;-4.6;80.4
41230;BME280;26964;50.428;19.218;2022-12-18T08:21:14;1038.9;;;-4.4;80.7
41230;BME280;26964;50.428;19.218;2022-12-18T08:26:13;1038.9;;;-4.2;80.6
41230;BME280;26964;50.428;19.218;2022-12-18T08:31:12;1039.0;;;-4.0;80.4
41230;BME280;26964;50.428;19.218;2022-12-18T08:36:12;1039.0;;;-3.8;80.2
41230;BME280;26964;50.428;19.218;2022-12-18T08:41:14;1039.0;;;-3.8;80.4
41230;BME280;26964;50.428;19.218;2022-12-18T08:46:12;1039.1;;;-3.7;80.4
41230;BME280;26964;50.428;19.218;2022-12-18T08:51:12;1039.2;;;-3.7;79.9
41230;BME280;26964;50.428;19.218;2022-12-18T08:56:13;1039.2;;;-3.8;79.3
41230;BME280;26964;50.428;19.218;2022-12-18T09:01:13;1039.3;;;-3.8;79.0
41230;BME280;26964;50.428;19.218;2022-12-18T09:06:13;1039.3;;;-3.9;79.0
41230;BME280;26964;50.428;19.218;2022-12-18T09:11:18;1039.4;;;-3.8;79.1
41230;BME280;26964;50.428;19.218;2022-12-18T09:16:12;1039.6;;;-3.8;79.0
41230;BME280;26964;50.428;19.218;2022-12-18T09:21:14;1039.6;;;-3.7;79.1
41230;BME280;26964;50.428;19.218;2022-12-18T09:26:12;1039.5;;;-3.7;79.0
41230;BME280;26964;50.428;19.218;2022-12-18T09:31:12;1039.6;;;-3.5;79.3
41230;BME280;26964;50.428;19.218;2022-12-18T09:36:13;1039.5;;;-3.3;79.5
41230;BME280;26964;50.428;19.218;2022-12-18T09:41:19;1039.6;;;-3.0;79.9
41230;BME280;26964;50.428;19.218;2022-12-18T09:46:17;1039.7;;;-2.9;79.6
41230;BME280;26964;50.428;19.218;2022-12-18T09:51:16;1039.5;;;-2.8;79.8
41230;BME280;26964;50.428;19.218;2022-12-18T09:56:16;1039.5;;;-2.6;79.5
41230;BME280;26964;50.428;19.218;2022-12-18T10:01:20;1039.6;;;-2.5;79.8
41230;BME280;26964;50.428;19.218;2022-12-18T10:06:18;1039.6;;;-2.5;79.1
41230;BME280;26964;50.428;19.218;2022-12-18T10:16:16;1039.6;;;-2.8;78.4
41230;BME280;26964;50.428;19.218;2022-12-18T10:21:16;1039.6;;;-3.0;78.4
41230;BME280;26964;50.428;19.218;2022-12-18T10:26:12;1039.5;;;-3.0;78.6
41230;BME280;26964;50.428;19.218;2022-12-18T10:31:16;1039.5;;;-3.0;78.6
41230;BME280;26964;50.428;19.218;2022-12-18T10:36:11;1039.5;;;-3.2;78.4
41230;BME280;26964;50.428;19.218;2022-12-18T10:46:14;1039.5;;;-3.1;78.8
41230;BME280;26964;50.428;19.218;2022-12-18T10:56:11;1039.4;;;-3.0;79.0
41230;BME280;26964;50.428;19.218;2022-12-18T11:01:13;1039.3;;;-2.9;78.9
41230;BME280;26964;50.428;19.218;2022-12-18T11:06:12;1039.2;;;-2.8;79.3
41230;BME280;26964;50.428;19.218;2022-12-18T11:11:15;1039.1;;;-2.7;79.0
41230;BME280;26964;50.428;19.218;2022-12-18T11:21:12;1039.1;;;-2.5;79.2
41230;BME280;26964;50.428;19.218;2022-12-18T11:26:12;1039.1;;;-2.3;79.3
41230;BME280;26964;50.428;19.218;2022-12-18T11:31:17;1039.2;;;-2.2;79.5
41230;BME280;26964;50.428;19.218;2022-12-18T11:36:12;1039.2;;;-2.1;79.5
41230;BME280;26964;50.428;19.218;2022-12-18T11:41:18;1039.2;;;-2.0;79.4
41230;BME280;26964;50.428;19.218;2022-12-18T11:46:13;1039.3;;;-2.0;79.4
41230;BME280;26964;50.428;19.218;2022-12-18T11:51:16;1039.3;;;-1.9;79.7
41230;BME280;26964;50.428;19.218;2022-12-18T12:01:18;1039.3;;;-2.0;79.1
41230;BME280;26964;50.428;19.218;2022-12-18T12:06:16;1039.3;;;-2.1;79.3
41230;BME280;26964;50.428;19.218;2022-12-18T12:11:17;1039.3;;;-2.2;79.2
41230;BME280;26964;50.428;19.218;2022-12-18T12:16:16;1039.4;;;-2.2;78.9
41230;BME280;26964;50.428;19.218;2022-12-18T12:21:16;1039.5;;;-2.2;78.8
41230;BME280;26964;50.428;19.218;2022-12-18T12:26:16;1039.5;;;-2.1;78.7
41230;BME280;26964;50.428;19.218;2022-12-18T12:31:15;1039.6;;;-2.2;78.2
41230;BME280;26964;50.428;19.218;2022-12-18T12:36:17;1039.6;;;-2.3;78.3
41230;BME280;26964;50.428;19.218;2022-12-18T12:41:14;1039.7;;;-2.2;78.6
41230;BME280;26964;50.428;19.218;2022-12-18T12:46:14;1039.7;;;-2.2;78.6
41230;BME280;26964;50.428;19.218;2022-12-18T12:51:16;1039.7;;;-2.2;78.9
41230;BME280;26964;50.428;19.218;2022-12-18T12:56:13;1039.6;;;-2.1;79.0
41230;BME280;26964;50.428;19.218;2022-12-18T13:01:17;1039.7;;;-2.2;79.0
41230;BME280;26964;50.428;19.218;2022-12-18T13:06:18;1039.6;;;-2.2;79.2
41230;BME280;26964;50.428;19.218;2022-12-18T13:16:18;1039.7;;;-2.5;78.9
41230;BME280;26964;50.428;19.218;2022-12-18T13:21:18;1039.8;;;-2.7;78.8
41230;BME280;26964;50.428;19.218;2022-12-18T13:36:16;1039.9;;;-3.1;78.9
41230;BME280;26964;50.428;19.218;2022-12-18T13:51:16;1040.0;;;-3.9;78.2
41230;BME280;26964;50.428;19.218;2022-12-18T13:56:15;1040.1;;;-4.3;78.2
41230;BME280;26964;50.428;19.218;2022-12-18T14:06:11;1040.0;;;-4.5;78.5
41230;BME280;26964;50.428;19.218;2022-12-18T14:16:17;1040.0;;;-4.7;78.5
41230;BME280;26964;50.428;19.218;2022-12-18T14:31:17;1040.1;;;-5.5;78.2
41230;BME280;26964;50.428;19.218;2022-12-18T14:36:16;1040.0;;;-5.7;77.9
41230;BME280;26964;50.428;19.218;2022-12-18T14:41:15;1040.0;;;-6.3;77.5
41230;BME280;26964;50.428;19.218;2022-12-18T14:51:15;1040.1;;;-6.9;77.9
41230;BME280;26964;50.428;19.218;2022-12-18T14:56:15;1040.2;;;-7.2;77.5
41230;BME280;26964;50.428;19.218;2022-12-18T15:16:12;1040.4;;;-7.9;78.0
41230;BME280;26964;50.428;19.218;2022-12-18T15:21:16;1040.4;;;-8.1;77.9
41230;BME280;26964;50.428;19.218;2022-12-18T15:26:13;1040.4;;;-8.2;77.9
41230;BME280;26964;50.428;19.218;2022-12-18T15:36:13;1040.5;;;-8.3;78.4
41230;BME280;26964;50.428;19.218;2022-12-18T15:41:13;1040.5;;;-8.3;78.2
41230;BME280;26964;50.428;19.218;2022-12-18T15:46:14;1040.7;;;-8.3;78.5
41230;BME280;26964;50.428;19.218;2022-12-18T15:51:16;1040.6;;;-8.2;78.4
41230;BME280;26964;50.428;19.218;2022-12-18T15:56:13;1040.7;;;-8.3;78.3
41230;BME280;26964;50.428;19.218;2022-12-18T16:01:12;1040.7;;;-8.4;78.0
41230;BME280;26964;50.428;19.218;2022-12-18T16:06:12;1040.7;;;-8.5;78.0
41230;BME280;26964;50.428;19.218;2022-12-18T16:11:19;1040.7;;;-8.7;78.0
41230;BME280;26964;50.428;19.218;2022-12-18T16:16:12;1040.8;;;-8.7;78.2
41230;BME280;26964;50.428;19.218;2022-12-18T16:21:12;1040.8;;;-8.7;78.4
41230;BME280;26964;50.428;19.218;2022-12-18T16:26:12;1040.8;;;-8.7;78.5
41230;BME280;26964;50.428;19.218;2022-12-18T16:31:12;1040.8;;;-8.7;78.3
41230;BME280;26964;50.428;19.218;2022-12-18T16:36:12;1041.0;;;-8.7;78.3
41230;BME280;26964;50.428;19.218;2022-12-18T16:41:17;1041.0;;;-8.7;78.3
41230;BME280;26964;50.428;19.218;2022-12-18T16:46:12;1040.8;;;-8.7;78.4
41230;BME280;26964;50.428;19.218;2022-12-18T16:51:12;1040.8;;;-8.6;78.5
41230;BME280;26964;50.428;19.218;2022-12-18T16:56:11;1040.8;;;-8.6;78.5
41230;BME280;26964;50.428;19.218;2022-12-18T17:01:12;1040.8;;;-8.7;78.2
41230;BME280;26964;50.428;19.218;2022-12-18T17:06:11;1040.6;;;-8.8;78.3
41230;BME280;26964;50.428;19.218;2022-12-18T17:11:12;1040.6;;;-8.8;78.2
41230;BME280;26964;50.428;19.218;2022-12-18T17:16:12;1040.4;;;-8.9;78.3
41230;BME280;26964;50.428;19.218;2022-12-18T17:21:12;1040.3;;;-8.9;78.3
41230;BME280;26964;50.428;19.218;2022-12-18T17:26:12;1040.2;;;-8.9;78.3
41230;BME280;26964;50.428;19.218;2022-12-18T17:31:13;1040.1;;;-8.9;78.3
41230;BME280;26964;50.428;19.218;2022-12-18T17:36:11;1040.2;;;-9.0;78.3
41230;BME280;26964;50.428;19.218;2022-12-18T17:41:11;1040.4;;;-9.0;78.3
41230;BME280;26964;50.428;19.218;2022-12-18T17:46:13;1040.5;;;-9.0;78.3
41230;BME280;26964;50.428;19.218;2022-12-18T17:51:15;1040.5;;;-9.1;78.3
41230;BME280;26964;50.428;19.218;2022-12-18T17:56:13;1040.7;;;-9.1;78.3
41230;BME280;26964;50.428;19.218;2022-12-18T18:01:13;1040.8;;;-9.1;78.5
41230;BME280;26964;50.428;19.218;2022-12-18T18:06:12;1040.8;;;-9.1;78.5
41230;BME280;26964;50.428;19.218;2022-12-18T18:11:13;1040.8;;;-9.1;78.3
41230;BME280;26964;50.428;19.218;2022-12-18T18:16:11;1040.7;;;-9.2;78.3
41230;BME280;26964;50.428;19.218;2022-12-18T18:21:12;1040.7;;;-9.2;78.3
41230;BME280;26964;50.428;19.218;2022-12-18T18:26:12;1040.7;;;-9.3;78.2
41230;BME280;26964;50.428;19.218;2022-12-18T18:31:11;1040.8;;;-9.4;78.0
41230;BME280;26964;50.428;19.218;2022-12-18T18:36:11;1040.7;;;-9.6;78.1
41230;BME280;26964;50.428;19.218;2022-12-18T18:41:12;1041.0;;;-9.8;77.8
41230;BME280;26964;50.428;19.218;2022-12-18T18:46:22;1041.0;;;-9.9;77.8
41230;BME280;26964;50.428;19.218;2022-12-18T18:51:14;1041.0;;;-10.1;77.8
41230;BME280;26964;50.428;19.218;2022-12-18T18:56:15;1041.0;;;-10.2;77.9
41230;BME280;26964;50.428;19.218;2022-12-18T19:01:13;1041.0;;;-10.3;78.2
41230;BME280;26964;50.428;19.218;2022-12-18T19:06:14;1041.0;;;-10.3;78.2
41230;BME280;26964;50.428;19.218;2022-12-18T19:11:14;1041.2;;;-10.3;78.3
41230;BME280;26964;50.428;19.218;2022-12-18T19:16:11;1041.2;;;-10.2;78.5
41230;BME280;26964;50.428;19.218;2022-12-18T19:21:10;1041.3;;;-10.1;78.5
41230;BME280;26964;50.428;19.218;2022-12-18T19:26:13;1041.4;;;-10.1;78.6
41230;BME280;26964;50.428;19.218;2022-12-18T19:31:13;1041.3;;;-10.0;78.5
41230;BME280;26964;50.428;19.218;2022-12-18T19:36:14;1041.2;;;-9.9;78.5
41230;BME280;26964;50.428;19.218;2022-12-18T19:41:12;1041.3;;;-9.9;78.5
41230;BME280;26964;50.428;19.218;2022-12-18T19:46:13;1041.3;;;-9.8;78.6
41230;BME280;26964;50.428;19.218;2022-12-18T19:51:14;1041.3;;;-9.6;78.7
41230;BME280;26964;50.428;19.218;2022-12-18T19:56:13;1041.3;;;-9.5;78.8
41230;BME280;26964;50.428;19.218;2022-12-18T20:01:12;1041.2;;;-9.4;79.0
41230;BME280;26964;50.428;19.218;2022-12-18T20:06:14;1041.1;;;-9.3;78.8
41230;BME280;26964;50.428;19.218;2022-12-18T20:11:11;1041.1;;;-9.2;78.7
41230;BME280;26964;50.428;19.218;2022-12-18T20:16:11;1041.1;;;-9.2;78.8
41230;BME280;26964;50.428;19.218;2022-12-18T20:21:10;1041.0;;;-9.3;78.5
41230;BME280;26964;50.428;19.218;2022-12-18T20:26:11;1040.9;;;-9.2;78.7
41230;BME280;26964;50.428;19.218;2022-12-18T20:31:11;1041.0;;;-9.2;78.7
41230;BME280;26964;50.428;19.218;2022-12-18T20:36:14;1041.0;;;-9.2;78.7
41230;BME280;26964;50.428;19.218;2022-12-18T20:41:15;1040.9;;;-9.3;78.6
41230;BME280;26964;50.428;19.218;2022-12-18T20:46:12;1040.8;;;-9.4;78.6
41230;BME280;26964;50.428;19.218;2022-12-18T20:51:13;1040.8;;;-9.4;78.6
41230;BME280;26964;50.428;19.218;2022-12-18T20:56:13;1040.6;;;-9.5;78.4
41230;BME280;26964;50.428;19.218;2022-12-18T21:01:14;1040.5;;;-9.7;78.3
41230;BME280;26964;50.428;19.218;2022-12-18T21:06:12;1040.6;;;-9.8;78.5
41230;BME280;26964;50.428;19.218;2022-12-18T21:11:12;1040.5;;;-9.8;78.5
41230;BME280;26964;50.428;19.218;2022-12-18T21:16:10;1040.5;;;-9.8;78.6
41230;BME280;26964;50.428;19.218;2022-12-18T21:21:11;1040.5;;;-9.8;78.4
41230;BME280;26964;50.428;19.218;2022-12-18T21:26:14;1040.6;;;-9.9;78.4
41230;BME280;26964;50.428;19.218;2022-12-18T21:36:13;1040.5;;;-10.0;78.4
41230;BME280;26964;50.428;19.218;2022-12-18T21:41:20;1040.6;;;-10.1;78.2
41230;BME280;26964;50.428;19.218;2022-12-18T21:46:11;1040.6;;;-10.2;78.2
41230;BME280;26964;50.428;19.218;2022-12-18T21:51:10;1040.6;;;-10.2;78.3
41230;BME280;26964;50.428;19.218;2022-12-18T22:01:10;1040.6;;;-10.4;78.2
41230;BME280;26964;50.428;19.218;2022-12-18T22:06:45;1040.6;;;-10.4;78.0
41230;BME280;26964;50.428;19.218;2022-12-18T22:11:11;1040.5;;;-10.5;78.1
41230;BME280;26964;50.428;19.218;2022-12-18T22:16:11;1040.7;;;-10.6;78.2
41230;BME280;26964;50.428;19.218;2022-12-18T22:31:15;1040.5;;;-10.4;78.6
41230;BME280;26964;50.428;19.218;2022-12-18T22:41:13;1040.5;;;-10.4;78.6
41230;BME280;26964;50.428;19.218;2022-12-18T22:51:16;1040.5;;;-10.2;78.7
41230;BME280;26964;50.428;19.218;2022-12-18T23:31:15;1040.4;;;-9.5;78.8
41230;BME280;26964;50.428;19.218;2022-12-18T23:36:17;1040.4;;;-9.5;78.8
41230;BME280;26964;50.428;19.218;2022-12-18T23:41:14;1040.4;;;-9.5;78.8
41230;BME280;26964;50.428;19.218;2022-12-18T23:46:11;1040.3;;;-9.5;78.6
41230;BME280;26964;50.428;19.218;2022-12-18T23:51:13;1040.4;;;-9.5;78.5
41230;BME280;26964;50.428;19.218;2022-12-18T23:56:11;1040.3;;;-9.6;78.3
